BrazilFixed distance
DesaFrio Urubici - 50km Corrida de Montanha
19 Jun2010
Distance
50km
Finishers
150125 men25 women
Winning time
4:13:30h
Median pace
7.43km/h
Pace distribution
150 finishers · 5.40–11.83 km/h · mean 7.64
Every finisher ran the same 50 km course, so these paces are directly comparable.
Histogram of finisher pace. 150 finishers ranged from 5.40 to 11.83 kilometres per hour, with a mean of 7.64 and a median of 7.43. The busiest band is 6.5 to 7.0 kilometres per hour, with 24 finishers.
Results
Ranks 51–100 of 150
| Rank | Runner | Time | Pace | Cat. | Placing |
|---|---|---|---|---|---|
| 51 | Clínica Igast | 6:11:18h | 8.08 | — | 48th M |
| 52 | *Ortigueira, PR | 6:11:18h | 8.08 | — | 48th M |
| 53 | *Jaraguá do Sul, SC | 6:11:18h | 8.08 | — | 48th M |
| 54 | *Porto Alegre, RS | 6:13:26h | 8.03 | M23 | 51st M · 14th M23 |
| 55 | Tigre em Ação | 6:14:50h | 8.00 | — | 52nd M |
| 56 | Andarilha | 6:15:24h | 7.99 | — | 53rd M |
| 57 | Tribo do Esporte | 6:15:58h | 7.98 | M40 | 54th M · 7th M40 |
| 58 | Aventura | 6:16:25h | 7.97 | M55 | 55th M · 2nd M55 |
| 59 | Oxigenio Sport | 6:16:51h | 7.96 | W40 | 4th F · 1st W40 |
| 60 | *Curitiba, PR | 6:17:16h | 7.95 | — | 56th M |
| 61 | *Brasilia, DF | 6:18:33h | 7.92 | M23 | 57th M · 15th M23 |
| 62 | BPM Assessoria Esportiva | 6:18:39h | 7.92 | — | 58th M |
| 63 | Furukawa | 6:19:03h | 7.92 | — | 59th M |
| 64 | Furukawa | 6:22:07h | 7.85 | — | 60th M |
| 65 | *São José dos Campos, SP | 6:22:54h | 7.83 | — | 61st M |
| 66 | Asfaltolokos - FUKUOKA | 6:23:03h | 7.83 | — | 62nd M |
| 67 | *Curitiba, PR | 6:25:36h | 7.78 | M60 | 63rd M · 2nd M60 |
| 68 | *Navegantes, SC | 6:30:07h | 7.69 | — | 64th M |
| 69 | *Curitiba, PR | 6:31:10h | 7.67 | — | 65th M |
| 70 | Tigre em Ação | 6:32:30h | 7.64 | MU23 | 66th M · 2nd MU23 |
| 71 | Flávio Freire | 6:33:15h | 7.63 | — | 5th F |
| 72 | Natatorium/Prontomed | 6:34:33h | 7.60 | W23 | 6th F · 1st W23 |
| 73 | Asfaltolokos - FUKUOKA | 6:38:54h | 7.52 | W45 | 7th F · 2nd W45 |
| 74 | Metalúrgica Cipriani | 6:38:59h | 7.52 | — | 67th M |
| 75 | Equipe Papa Km | 6:42:01h | 7.46 | M65 | 68th M · 1st M65 |
| 76 | Familia Meyer | 6:43:57h | 7.43 | W23 | 8th F · 2nd W23 |
| 77 | *Balneário Camboriú, SC | 6:45:43h | 7.39 | M35 | 69th M · 3rd M35 |
| 78 | *Joinville, SC | 6:46:56h | 7.37 | — | 70th M |
| 79 | Furukawa | 6:48:58h | 7.34 | — | 71st M |
| 80 | Trainer Assessoria Esp... | 6:52:13h | 7.28 | M23 | 72nd M · 16th M23 |
| 81 | *Jaraguá do Sul, SC | 6:52:38h | 7.27 | — | 9th F |
| 82 | *Curitiba, PR | 6:52:56h | 7.26 | M60 | 73rd M · 3rd M60 |
| 83 | Tribo do Esporte | 6:53:08h | 7.26 | W35 | 10th F · 2nd W35 |
| 84 | Andarilha | 6:54:13h | 7.24 | — | 11th F |
| 85 | 42k Ass. Esportiva/Jul... | 6:55:26h | 7.22 | — | 74th M |
| 86 | Branca Esportes | 6:55:26h | 7.22 | M35 | 74th M · 4th M35 |
| 87 | *Serra, ES | 6:55:49h | 7.21 | W60 | 12th F · 1st W60 |
| 88 | *Porto Alegre, RS | 6:58:58h | 7.16 | — | 13th F |
| 89 | Personal Life | 7:01:23h | 7.12 | M50 | 76th M · 4th M50 |
| 90 | *Erechim, RS | 7:03:34h | 7.08 | M45 | 77th M · 4th M45 |
| 91 | *Carapicuíba, SP | 7:04:15h | 7.07 | W23 | 14th F · 3rd W23 |
| 92 | *Carapicuiba, SP | 7:04:22h | 7.07 | M40 | 78th M · 8th M40 |
| 93 | *Florianopolis, SC | 7:07:40h | 7.01 | — | 79th M |
| 94 | Miriam Caldasso | 7:10:47h | 6.96 | W40 | 15th F · 2nd W40 |
| 95 | Tigre em Ação | 7:11:57h | 6.95 | — | 80th M |
| 96 | Equipe Hidra | 7:12:40h | 6.93 | — | 81st M |
| 97 | Macarunners / Base 1 | 7:12:54h | 6.93 | M40 | 82nd M · 9th M40 |
| 98 | *Porto Alegre, RS | 7:14:35h | 6.90 | M40 | 83rd M · 10th M40 |
| 99 | Clínica Igast | 7:16:02h | 6.88 | — | 84th M |
| 100 | *São José dos Campos, SP | 7:16:20h | 6.88 | M45 | 85th M · 5th M45 |
- 51Clínica Igast48th MTime6:11:18hPace8.08
- 52*Ortigueira, PR48th MTime6:11:18hPace8.08
- 53*Jaraguá do Sul, SC48th MTime6:11:18hPace8.08
- 54*Porto Alegre, RS51st M · 14th M23Time6:13:26hPace8.03Cat.M23
- 55Tigre em Ação52nd MTime6:14:50hPace8.00
- 56Andarilha53rd MTime6:15:24hPace7.99
- 57Tribo do Esporte54th M · 7th M40Time6:15:58hPace7.98Cat.M40
- 58Aventura55th M · 2nd M55Time6:16:25hPace7.97Cat.M55
- 59Oxigenio Sport4th F · 1st W40Time6:16:51hPace7.96Cat.W40
- 60*Curitiba, PR56th MTime6:17:16hPace7.95
- 61*Brasilia, DF57th M · 15th M23Time6:18:33hPace7.92Cat.M23
- 62BPM Assessoria Esportiva58th MTime6:18:39hPace7.92
- 63Furukawa59th MTime6:19:03hPace7.92
- 64Furukawa60th MTime6:22:07hPace7.85
- 65*São José dos Campos, SP61st MTime6:22:54hPace7.83
- 66Asfaltolokos - FUKUOKA62nd MTime6:23:03hPace7.83
- 67*Curitiba, PR63rd M · 2nd M60Time6:25:36hPace7.78Cat.M60
- 68*Navegantes, SC64th MTime6:30:07hPace7.69
- 69*Curitiba, PR65th MTime6:31:10hPace7.67
- 70Tigre em Ação66th M · 2nd MU23Time6:32:30hPace7.64Cat.MU23
- 71Flávio Freire5th FTime6:33:15hPace7.63
- 72Natatorium/Prontomed6th F · 1st W23Time6:34:33hPace7.60Cat.W23
- 73Asfaltolokos - FUKUOKA7th F · 2nd W45Time6:38:54hPace7.52Cat.W45
- 74Metalúrgica Cipriani67th MTime6:38:59hPace7.52
- 75Equipe Papa Km68th M · 1st M65Time6:42:01hPace7.46Cat.M65
- 76Familia Meyer8th F · 2nd W23Time6:43:57hPace7.43Cat.W23
- 77*Balneário Camboriú, SC69th M · 3rd M35Time6:45:43hPace7.39Cat.M35
- 78*Joinville, SC70th MTime6:46:56hPace7.37
- 79Furukawa71st MTime6:48:58hPace7.34
- 80Trainer Assessoria Esp...72nd M · 16th M23Time6:52:13hPace7.28Cat.M23
- 81*Jaraguá do Sul, SC9th FTime6:52:38hPace7.27
- 82*Curitiba, PR73rd M · 3rd M60Time6:52:56hPace7.26Cat.M60
- 83Tribo do Esporte10th F · 2nd W35Time6:53:08hPace7.26Cat.W35
- 84Andarilha11th FTime6:54:13hPace7.24
- 8542k Ass. Esportiva/Jul...74th MTime6:55:26hPace7.22
- 86Branca Esportes74th M · 4th M35Time6:55:26hPace7.22Cat.M35
- 87*Serra, ES12th F · 1st W60Time6:55:49hPace7.21Cat.W60
- 88*Porto Alegre, RS13th FTime6:58:58hPace7.16
- 89Personal Life76th M · 4th M50Time7:01:23hPace7.12Cat.M50
- 90*Erechim, RS77th M · 4th M45Time7:03:34hPace7.08Cat.M45
- 91*Carapicuíba, SP14th F · 3rd W23Time7:04:15hPace7.07Cat.W23
- 92*Carapicuiba, SP78th M · 8th M40Time7:04:22hPace7.07Cat.M40
- 93*Florianopolis, SC79th MTime7:07:40hPace7.01
- 94Miriam Caldasso15th F · 2nd W40Time7:10:47hPace6.96Cat.W40
- 95Tigre em Ação80th MTime7:11:57hPace6.95
- 96Equipe Hidra81st MTime7:12:40hPace6.93
- 97Macarunners / Base 182nd M · 9th M40Time7:12:54hPace6.93Cat.M40
- 98*Porto Alegre, RS83rd M · 10th M40Time7:14:35hPace6.90Cat.M40
- 99Clínica Igast84th MTime7:16:02hPace6.88
- 100*São José dos Campos, SP85th M · 5th M45Time7:16:20hPace6.88Cat.M45
Showing ranks 51–100 of 150